Time;durP1;ratioP1;P1;durP2;ratioP2;P2;SDS_P1;SDS_P2;PMS_P1;PMS_P2;Temp;Humidity;BMP_temperature;BMP_pressure;BME280_temperature;BME280_humidity;BME280_pressure;Samples;Min_cycle;Max_cycle;Signal;HPM_P1;HPM_P2
2022/06/26 00:00:05;;;;;;;16.23;13.43;;;;;;;;;;6287333;28;20406;-54
2022/06/26 00:03:27;;;;;;;17.30;12.98;;;;;;;;;;6288173;28;20045;-47
2022/06/26 00:06:28;;;;;;;20.90;14.18;;;;;;;;;;6286442;28;20068;-47
2022/06/26 00:09:29;;;;;;;17.63;13.03;;;;;;;;;;6289184;28;20389;-47
2022/06/26 00:12:29;;;;;;;18.53;12.97;;;;;;;;;;6290658;28;20075;-47
2022/06/26 00:15:30;;;;;;;20.40;13.37;;;;;;;;;;6288266;28;20491;-49
2022/06/26 00:18:31;;;;;;;18.10;14.03;;;;;;;;;;6281661;28;20043;-48
2022/06/26 00:21:31;;;;;;;19.67;13.97;;;;;;;;;;6287386;28;20127;-48
2022/06/26 00:24:33;;;;;;;18.13;13.30;;;;;;;;;;6285590;28;20044;-51
2022/06/26 00:27:33;;;;;;;20.77;13.65;;;;;;;;;;6287432;28;20048;-49
2022/06/26 00:30:34;;;;;;;21.27;14.10;;;;;;;;;;6284519;28;22055;-47
2022/06/26 00:33:34;;;;;;;20.40;14.10;;;;;;;;;;6284266;28;20131;-49
2022/06/26 00:36:35;;;;;;;18.30;13.53;;;;;;;;;;6282531;28;20114;-48
2022/06/26 00:39:36;;;;;;;19.27;14.13;;;;;;;;;;6292189;28;20058;-47
2022/06/26 00:42:36;;;;;;;19.87;13.27;;;;;;;;;;6295326;28;20037;-47
2022/06/26 00:45:37;;;;;;;16.87;13.23;;;;;;;;;;6283568;28;20044;-50
2022/06/26 00:48:38;;;;;;;21.10;13.67;;;;;;;;;;6289277;28;21194;-48
2022/06/26 00:51:43;;;;;;;17.70;14.03;;;;;;;;;;6287287;28;20040;-47
2022/06/26 00:54:44;;;;;;;17.73;14.25;;;;;;;;;;6281261;28;20505;-48
2022/06/26 00:57:45;;;;;;;16.47;13.47;;;;;;;;;;6286036;28;20051;-48
2022/06/26 01:00:46;;;;;;;18.90;14.32;;;;;;;;;;6281762;28;20633;-47
2022/06/26 01:03:46;;;;;;;17.73;13.83;;;;;;;;;;6289088;28;20143;-48
2022/06/26 01:06:48;;;;;;;16.77;13.57;;;;;;;;;;6280991;28;20044;-47
2022/06/26 01:09:48;;;;;;;17.23;13.40;;;;;;;;;;6284730;28;20525;-47
2022/06/26 01:12:50;;;;;;;20.40;14.67;;;;;;;;;;6287321;28;20033;-48
2022/06/26 01:15:51;;;;;;;18.73;13.93;;;;;;;;;;6282571;28;20044;-46
2022/06/26 01:18:55;;;;;;;18.53;14.13;;;;;;;;;;6285791;28;20301;-47
2022/06/26 01:21:55;;;;;;;19.23;13.57;;;;;;;;;;6286884;28;20135;-47
2022/06/26 01:24:56;;;;;;;18.83;14.03;;;;;;;;;;6284804;28;20483;-47
2022/06/26 01:27:57;;;;;;;17.70;13.63;;;;;;;;;;6285242;28;20430;-48
2022/06/26 01:30:58;;;;;;;18.63;13.83;;;;;;;;;;6285545;28;20051;-48
2022/06/26 01:33:58;;;;;;;20.70;14.37;;;;;;;;;;6284434;28;20040;-48
2022/06/26 01:37:00;;;;;;;21.03;14.47;;;;;;;;;;6288113;28;20063;-48
2022/06/26 01:40:01;;;;;;;18.65;13.40;;;;;;;;;;6289481;28;20044;-48
2022/06/26 01:43:02;;;;;;;18.03;13.63;;;;;;;;;;6289093;28;20533;-47
2022/06/26 01:46:03;;;;;;;18.77;14.80;;;;;;;;;;6289857;28;20615;-48
2022/06/26 01:49:04;;;;;;;19.92;13.65;;;;;;;;;;6281942;28;20135;-47
2022/06/26 01:52:05;;;;;;;18.63;14.73;;;;;;;;;;6285495;28;20564;-48
2022/06/26 01:55:06;;;;;;;21.20;14.47;;;;;;;;;;6282053;28;20068;-47
2022/06/26 01:58:07;;;;;;;19.67;14.27;;;;;;;;;;6285586;28;20486;-47
2022/06/26 02:01:08;;;;;;;17.90;14.07;;;;;;;;;;6287795;28;20083;-51
2022/06/26 02:04:09;;;;;;;22.73;13.57;;;;;;;;;;6288821;28;20503;-47
2022/06/26 02:07:09;;;;;;;18.70;13.77;;;;;;;;;;6282629;28;20055;-48
2022/06/26 02:13:42;;;;;;;20.10;14.80;;;;;;;;;;6289068;28;20045;-48
2022/06/26 02:16:42;;;;;;;18.45;13.95;;;;;;;;;;6282421;28;20489;-47
2022/06/26 02:19:43;;;;;;;20.00;14.43;;;;;;;;;;6288882;28;20168;-50
2022/06/26 02:22:43;;;;;;;19.40;14.03;;;;;;;;;;6287823;28;20047;-49
2022/06/26 02:25:45;;;;;;;21.83;13.77;;;;;;;;;;6282429;28;20036;-47
2022/06/26 02:28:48;;;;;;;18.60;13.48;;;;;;;;;;6282287;28;20090;-47
2022/06/26 02:31:48;;;;;;;20.23;14.82;;;;;;;;;;6284739;28;20083;-47
2022/06/26 02:34:49;;;;;;;17.70;14.13;;;;;;;;;;6287845;28;20045;-50
2022/06/26 02:37:50;;;;;;;17.30;13.97;;;;;;;;;;6279875;28;20047;-47
2022/06/26 02:40:51;;;;;;;17.10;13.65;;;;;;;;;;6282220;28;20078;-48
2022/06/26 02:43:52;;;;;;;17.27;12.95;;;;;;;;;;6285673;28;20403;-46
2022/06/26 02:46:53;;;;;;;18.83;13.47;;;;;;;;;;6283061;28;20127;-49
2022/06/26 02:49:53;;;;;;;21.77;14.43;;;;;;;;;;6286388;28;20062;-47
2022/06/26 02:52:54;;;;;;;17.40;13.83;;;;;;;;;;6283998;28;20096;-47
2022/06/26 02:55:54;;;;;;;18.00;14.00;;;;;;;;;;6284941;28;20039;-49
2022/06/26 02:58:55;;;;;;;19.73;13.63;;;;;;;;;;6285050;28;20148;-48
2022/06/26 03:01:57;;;;;;;17.87;13.63;;;;;;;;;;6288035;28;20396;-47
2022/06/26 03:04:58;;;;;;;20.05;14.13;;;;;;;;;;6289659;28;20044;-49
2022/06/26 03:07:59;;;;;;;19.57;14.00;;;;;;;;;;6288994;28;20094;-47
2022/06/26 03:11:00;;;;;;;18.08;14.10;;;;;;;;;;6291128;28;20102;-46
2022/06/26 03:14:00;;;;;;;19.03;14.40;;;;;;;;;;6287764;28;20078;-48
2022/06/26 03:17:01;;;;;;;18.93;14.67;;;;;;;;;;6291489;28;20131;-47
2022/06/26 03:20:02;;;;;;;19.57;15.10;;;;;;;;;;6290867;28;20431;-47
2022/06/26 03:23:03;;;;;;;20.15;14.95;;;;;;;;;;6291009;28;20037;-48
2022/06/26 03:26:04;;;;;;;20.70;14.77;;;;;;;;;;6289186;28;20064;-46
2022/06/26 03:29:07;;;;;;;20.30;16.07;;;;;;;;;;6291453;28;20036;-49
2022/06/26 03:32:08;;;;;;;22.13;15.82;;;;;;;;;;6286167;28;20072;-47
2022/06/26 03:35:09;;;;;;;19.17;14.63;;;;;;;;;;6286283;28;20852;-47
2022/06/26 03:38:10;;;;;;;22.50;16.63;;;;;;;;;;6285113;28;20533;-46
2022/06/26 03:41:11;;;;;;;23.13;17.60;;;;;;;;;;6286402;28;20079;-48
2022/06/26 03:44:12;;;;;;;20.02;15.88;;;;;;;;;;6284930;28;20060;-48
2022/06/26 03:47:13;;;;;;;22.17;16.57;;;;;;;;;;6292920;28;20406;-47
2022/06/26 03:50:13;;;;;;;21.10;16.30;;;;;;;;;;6296671;28;20041;-47
2022/06/26 03:53:14;;;;;;;23.10;16.30;;;;;;;;;;6289559;28;22670;-47
2022/06/26 03:56:15;;;;;;;24.97;17.13;;;;;;;;;;6289350;28;20093;-47
2022/06/26 03:59:15;;;;;;;24.23;15.90;;;;;;;;;;6297090;28;20068;-48
2022/06/26 04:02:16;;;;;;;24.77;16.03;;;;;;;;;;6285670;28;20156;-48
2022/06/26 04:05:17;;;;;;;20.20;15.67;;;;;;;;;;6280944;28;20053;-48
2022/06/26 04:08:19;;;;;;;21.20;15.33;;;;;;;;;;6290439;28;20044;-50
2022/06/26 04:11:19;;;;;;;;;;;;;;;;;;6291288;28;20423;-47
2022/06/26 04:14:20;;;;;;;22.38;16.50;;;;;;;;;;6287789;28;20336;-49
2022/06/26 04:17:21;;;;;;;23.67;15.20;;;;;;;;;;6282232;28;20125;-47
2022/06/26 04:20:22;;;;;;;24.40;16.23;;;;;;;;;;6287439;28;20045;-49
2022/06/26 04:23:22;;;;;;;20.67;14.93;;;;;;;;;;6292531;28;20064;-47
2022/06/26 04:26:23;;;;;;;19.27;15.10;;;;;;;;;;6280794;28;20043;-49
2022/06/26 04:29:24;;;;;;;21.80;16.03;;;;;;;;;;6283972;28;20136;-48
2022/06/26 04:32:24;;;;;;;19.10;14.77;;;;;;;;;;6290851;28;20074;-47
2022/06/26 04:35:25;;;;;;;21.83;15.43;;;;;;;;;;6289308;28;20068;-48
2022/06/26 04:38:26;;;;;;;20.52;14.88;;;;;;;;;;6287026;28;20036;-47
2022/06/26 04:41:36;;;;;;;22.33;15.20;;;;;;;;;;6284154;28;20414;-50
2022/06/26 04:44:37;;;;;;;18.20;14.43;;;;;;;;;;6283309;28;20076;-50
2022/06/26 04:47:38;;;;;;;18.37;14.83;;;;;;;;;;6288577;28;20066;-48
2022/06/26 04:50:39;;;;;;;17.02;12.05;;;;;;;;;;6288182;28;20060;-47
2022/06/26 04:53:39;;;;;;;19.10;12.03;;;;;;;;;;6287456;28;20126;-48
2022/06/26 04:56:40;;;;;;;16.47;10.50;;;;;;;;;;6287912;28;20097;-48
2022/06/26 04:59:40;;;;;;;15.17;9.93;;;;;;;;;;6283250;28;20056;-47
2022/06/26 05:02:41;;;;;;;15.10;10.70;;;;;;;;;;6291653;28;20045;-48
2022/06/26 05:05:42;;;;;;;16.93;10.83;;;;;;;;;;6287357;28;20044;-50
2022/06/26 05:08:43;;;;;;;17.73;10.93;;;;;;;;;;6291551;28;20055;-48
2022/06/26 05:11:44;;;;;;;18.27;11.07;;;;;;;;;;6306393;28;20658;-48
2022/06/26 05:14:44;;;;;;;15.98;10.75;;;;;;;;;;6297400;28;20101;-48
2022/06/26 05:17:46;;;;;;;17.42;11.15;;;;;;;;;;6303504;28;20135;-47
2022/06/26 05:20:47;;;;;;;16.47;11.30;;;;;;;;;;6307251;28;20105;-48
2022/06/26 05:23:47;;;;;;;17.20;11.30;;;;;;;;;;6295308;28;20077;-48
2022/06/26 05:26:48;;;;;;;15.53;10.53;;;;;;;;;;6305322;28;20178;-47
2022/06/26 05:29:50;;;;;;;13.27;10.33;;;;;;;;;;6302583;28;20096;-49
2022/06/26 05:32:51;;;;;;;14.40;10.55;;;;;;;;;;6309698;28;20106;-47
2022/06/26 05:35:51;;;;;;;14.67;10.73;;;;;;;;;;6302981;28;20040;-47
2022/06/26 05:38:52;;;;;;;15.10;10.50;;;;;;;;;;6287636;28;20071;-48
2022/06/26 05:41:52;;;;;;;14.57;10.30;;;;;;;;;;6287944;28;20051;-49
2022/06/26 05:44:53;;;;;;;14.03;9.90;;;;;;;;;;6288172;28;22170;-48
2022/06/26 05:47:53;;;;;;;12.87;9.87;;;;;;;;;;6283948;28;20040;-48
2022/06/26 05:50:55;;;;;;;17.90;10.60;;;;;;;;;;6293901;28;20097;-49
2022/06/26 05:53:55;;;;;;;16.45;10.88;;;;;;;;;;6291015;28;20044;-47
2022/06/26 05:56:56;;;;;;;16.88;10.23;;;;;;;;;;6286672;28;20043;-47
2022/06/26 05:59:56;;;;;;;14.87;10.03;;;;;;;;;;6287556;28;20494;-48
2022/06/26 06:02:57;;;;;;;15.40;10.20;;;;;;;;;;6282854;28;20044;-47
2022/06/26 06:05:58;;;;;;;16.70;10.30;;;;;;;;;;6287352;28;20184;-49
2022/06/26 06:08:59;;;;;;;14.50;10.27;;;;;;;;;;6286110;28;20123;-48
2022/06/26 06:11:59;;;;;;;17.40;10.97;;;;;;;;;;6288543;28;20056;-48
2022/06/26 06:15:01;;;;;;;13.47;10.37;;;;;;;;;;6282197;28;20113;-48
2022/06/26 06:18:02;;;;;;;;;;;;;;;;;;6284107;28;20127;-47
2022/06/26 06:21:02;;;;;;;14.48;9.98;;;;;;;;;;6283271;28;19920;-48
2022/06/26 06:24:03;;;;;;;16.23;10.90;;;;;;;;;;6286318;28;20045;-47
2022/06/26 06:27:04;;;;;;;15.70;9.50;;;;;;;;;;6282309;28;20052;-48
2022/06/26 06:30:07;;;;;;;12.50;10.27;;;;;;;;;;6282979;28;20086;-47
2022/06/26 06:33:07;;;;;;;16.63;10.40;;;;;;;;;;6287579;28;20043;-56
2022/06/26 06:36:08;;;;;;;14.10;10.13;;;;;;;;;;6275397;28;20068;-53
2022/06/26 06:39:09;;;;;;;16.07;10.33;;;;;;;;;;6287986;28;20771;-48
2022/06/26 06:42:09;;;;;;;14.60;9.70;;;;;;;;;;6289355;28;20128;-49
2022/06/26 06:45:11;;;;;;;16.92;10.65;;;;;;;;;;6288015;28;20414;-48
2022/06/26 06:48:11;;;;;;;14.63;9.57;;;;;;;;;;6292786;28;20044;-47
2022/06/26 06:51:12;;;;;;;13.77;9.93;;;;;;;;;;6284636;28;20086;-51
2022/06/26 06:54:12;;;;;;;13.80;9.80;;;;;;;;;;6669783;22;20053;-47
2022/06/26 06:57:13;;;;;;;11.97;9.63;;;;;;;;;;6261733;28;20060;-49
2022/06/26 07:00:13;;;;;;;15.47;10.63;;;;;;;;;;6264935;28;21520;-47
2022/06/26 07:03:14;;;;;;;15.67;9.60;;;;;;;;;;6263977;28;20102;-50
2022/06/26 07:06:15;;;;;;;14.93;9.83;;;;;;;;;;6265036;28;20131;-47
2022/06/26 07:09:16;;;;;;;13.40;9.33;;;;;;;;;;6265167;28;20044;-48
2022/06/26 07:12:17;;;;;;;14.55;9.60;;;;;;;;;;6266518;28;20061;-51
2022/06/26 07:15:17;;;;;;;14.70;10.07;;;;;;;;;;6268651;28;20541;-48
2022/06/26 07:18:18;;;;;;;12.93;9.70;;;;;;;;;;6263396;28;20055;-49
2022/06/26 07:21:18;;;;;;;13.77;9.70;;;;;;;;;;6265284;28;20540;-47
2022/06/26 07:24:19;;;;;;;13.37;8.67;;;;;;;;;;6263227;28;20712;-48
2022/06/26 07:27:20;;;;;;;12.47;8.63;;;;;;;;;;6261518;28;20362;-48
2022/06/26 07:30:20;;;;;;;12.57;8.03;;;;;;;;;;6263619;28;20053;-59
2022/06/26 07:36:42;;;;;;;11.57;7.90;;;;;;;;;;6262745;28;20049;-50
2022/06/26 07:39:42;;;;;;;11.75;8.50;;;;;;;;;;6262359;28;20044;-50
2022/06/26 07:42:43;;;;;;;11.77;8.40;;;;;;;;;;6263433;28;20049;-51
2022/06/26 07:45:43;;;;;;;11.17;7.73;;;;;;;;;;6267851;28;20045;-50
2022/06/26 07:48:44;;;;;;;11.20;8.23;;;;;;;;;;6263337;28;20045;-48
2022/06/26 07:51:45;;;;;;;11.40;7.67;;;;;;;;;;6264112;28;20168;-47
2022/06/26 07:54:45;;;;;;;10.60;6.93;;;;;;;;;;6262528;28;20136;-51
2022/06/26 07:57:46;;;;;;;10.17;6.90;;;;;;;;;;6263429;28;20037;-49
2022/06/26 08:00:47;;;;;;;8.67;6.77;;;;;;;;;;6264457;28;22570;-51
2022/06/26 08:03:47;;;;;;;9.57;6.35;;;;;;;;;;6262021;28;20059;-47
2022/06/26 08:06:48;;;;;;;10.33;6.50;;;;;;;;;;6262301;28;20055;-47
2022/06/26 08:09:48;;;;;;;10.37;6.20;;;;;;;;;;6260946;28;20187;-48
2022/06/26 08:12:49;;;;;;;8.97;6.70;;;;;;;;;;6262855;28;20082;-47
2022/06/26 08:15:50;;;;;;;8.73;6.47;;;;;;;;;;6264790;28;20063;-48
2022/06/26 08:18:50;;;;;;;9.63;6.80;;;;;;;;;;6268001;28;20132;-47
2022/06/26 08:22:00;;;;;;;8.98;6.30;;;;;;;;;;6262217;28;20733;-48
2022/06/26 08:25:00;;;;;;;10.52;6.32;;;;;;;;;;6263119;28;20045;-48
2022/06/26 08:28:02;;;;;;;8.80;6.50;;;;;;;;;;6261104;28;20083;-50
2022/06/26 08:31:02;;;;;;;9.73;5.90;;;;;;;;;;6265101;28;20044;-50
2022/06/26 08:34:03;;;;;;;9.02;6.43;;;;;;;;;;6263258;28;20189;-47
2022/06/26 08:37:03;;;;;;;12.97;6.30;;;;;;;;;;6262321;28;20145;-47
2022/06/26 08:40:05;;;;;;;9.73;6.07;;;;;;;;;;6263182;28;20045;-47
2022/06/26 08:43:06;;;;;;;9.68;6.03;;;;;;;;;;6262812;28;20091;-47
2022/06/26 08:46:07;;;;;;;11.35;6.82;;;;;;;;;;6263273;28;20486;-50
2022/06/26 08:49:11;;;;;;;7.80;5.75;;;;;;;;;;6261391;28;20045;-48
2022/06/26 08:52:14;;;;;;;8.32;6.28;;;;;;;;;;6265067;28;20055;-53
2022/06/26 08:55:16;;;;;;;7.05;6.13;;;;;;;;;;6260463;28;20059;-48
2022/06/26 08:58:16;;;;;;;9.32;5.82;;;;;;;;;;6260316;28;20088;-46
2022/06/26 09:01:17;;;;;;;9.30;6.03;;;;;;;;;;6258883;28;20660;-47
2022/06/26 09:04:18;;;;;;;10.65;6.10;;;;;;;;;;6261315;28;20053;-48
2022/06/26 09:07:18;;;;;;;7.03;5.35;;;;;;;;;;6243928;28;20132;-48
2022/06/26 09:10:20;;;;;;;8.40;5.65;;;;;;;;;;6258772;28;20040;-47
2022/06/26 09:13:21;;;;;;;9.70;5.88;;;;;;;;;;6258503;28;20578;-48
2022/06/26 09:16:32;;;;;;;10.38;6.18;;;;;;;;;;6261496;28;20048;-47
2022/06/26 09:19:36;;;;;;;9.10;6.40;;;;;;;;;;6257210;28;20068;-49
2022/06/26 09:22:50;;;;;;;10.55;6.03;;;;;;;;;;6257164;28;20136;-48
2022/06/26 09:25:51;;;;;;;7.25;5.72;;;;;;;;;;6259917;28;20053;-48
2022/06/26 09:28:52;;;;;;;10.70;5.53;;;;;;;;;;6260733;28;20049;-48
2022/06/26 09:31:52;;;;;;;7.38;5.20;;;;;;;;;;6260593;28;20533;-48
2022/06/26 09:34:54;;;;;;;7.57;5.68;;;;;;;;;;6262097;28;20207;-47
2022/06/26 09:37:58;;;;;;;7.63;5.40;;;;;;;;;;6265696;28;20044;-48
2022/06/26 09:41:02;;;;;;;8.93;5.75;;;;;;;;;;6262622;28;20045;-52
2022/06/26 09:44:03;;;;;;;8.10;5.65;;;;;;;;;;6261329;28;20135;-48
2022/06/26 09:47:17;;;;;;;7.80;5.53;;;;;;;;;;6265570;28;20447;-50
2022/06/26 09:50:19;;;;;;;7.35;5.35;;;;;;;;;;6264491;28;20754;-56
2022/06/26 09:53:20;;;;;;;;;;;;;;;;;;6262712;28;20151;-51
2022/06/26 09:56:21;;;;;;;8.45;5.47;;;;;;;;;;6264493;28;19931;-48
2022/06/26 09:59:21;;;;;;;9.70;6.03;;;;;;;;;;6263904;28;20384;-48
2022/06/26 10:06:25;;;;;;;6.97;5.32;;;;;;;;;;6264388;28;20083;-50
2022/06/26 10:09:06;;;;;;;13.18;5.88;;;;;;;;;;6263510;28;20045;-50
2022/06/26 10:12:08;;;;;;;8.07;5.00;;;;;;;;;;6271164;28;20037;-48
2022/06/26 10:15:11;;;;;;;8.93;5.35;;;;;;;;;;6271385;28;20102;-49
2022/06/26 10:18:28;;;;;;;8.18;5.10;;;;;;;;;;6272385;28;20044;-50
2022/06/26 10:21:37;;;;;;;8.07;5.97;;;;;;;;;;6271439;28;20049;-49
2022/06/26 10:25:19;;;;;;;8.35;5.00;;;;;;;;;;6263511;28;20092;-50
2022/06/26 10:28:20;;;;;;;7.53;5.25;;;;;;;;;;6236257;28;20088;-49
2022/06/26 10:31:20;;;;;;;6.28;5.07;;;;;;;;;;6251187;28;21285;-49
2022/06/26 10:34:25;;;;;;;8.30;5.13;;;;;;;;;;6249395;28;20051;-45
2022/06/26 10:37:26;;;;;;;8.32;5.70;;;;;;;;;;6247993;28;20049;-49
2022/06/26 10:43:54;;;;;;;7.75;5.30;;;;;;;;;;6250636;28;20073;-47
2022/06/26 10:46:58;;;;;;;7.03;5.43;;;;;;;;;;6245396;28;20052;-49
2022/06/26 10:49:58;;;;;;;7.00;5.15;;;;;;;;;;6245496;28;20056;-48
2022/06/26 10:53:11;;;;;;;7.27;5.47;;;;;;;;;;6246896;28;20133;-48
2022/06/26 10:56:12;;;;;;;6.80;5.20;;;;;;;;;;6244424;28;20148;-50
2022/06/26 10:59:17;;;;;;;6.00;4.88;;;;;;;;;;6247223;28;21431;-50
2022/06/26 11:02:18;;;;;;;6.95;4.90;;;;;;;;;;6247730;28;20141;-48
2022/06/26 11:05:20;;;;;;;5.80;5.00;;;;;;;;;;6244786;28;20912;-55
2022/06/26 11:08:38;;;;;;;7.80;4.95;;;;;;;;;;6246446;28;20590;-51
2022/06/26 11:11:38;;;;;;;7.93;4.88;;;;;;;;;;6245318;28;20856;-57
2022/06/26 11:14:40;;;;;;;7.07;5.38;;;;;;;;;;6246839;28;20049;-52
2022/06/26 11:17:51;;;;;;;7.95;5.40;;;;;;;;;;6246907;28;20053;-56
2022/06/26 11:20:54;;;;;;;7.85;5.30;;;;;;;;;;6247130;28;20091;-49
2022/06/26 11:23:55;;;;;;;8.07;5.30;;;;;;;;;;6242689;28;20056;-47
2022/06/26 11:26:56;;;;;;;;;;;;;;;;;;6241015;28;20076;-46
2022/06/26 11:29:57;;;;;;;8.53;5.40;;;;;;;;;;6242736;28;19925;-46
2022/06/26 11:32:58;;;;;;;7.05;5.32;;;;;;;;;;6241466;28;20064;-50
2022/06/26 11:36:06;;;;;;;8.10;5.35;;;;;;;;;;6239087;28;20048;-46
2022/06/26 11:39:06;;;;;;;6.38;4.97;;;;;;;;;;6241578;28;20183;-49
2022/06/26 11:42:23;;;;;;;8.53;5.20;;;;;;;;;;6241057;28;20049;-48
2022/06/26 11:45:25;;;;;;;7.93;5.32;;;;;;;;;;6243140;28;20349;-49
2022/06/26 11:48:26;;;;;;;6.43;5.40;;;;;;;;;;6242569;28;20148;-51
2022/06/26 11:51:30;;;;;;;9.02;5.55;;;;;;;;;;6236975;28;20074;-49
2022/06/26 11:54:30;;;;;;;6.60;5.00;;;;;;;;;;6239489;28;20071;-47
2022/06/26 11:57:31;;;;;;;10.23;6.00;;;;;;;;;;6242216;28;20674;-48
2022/06/26 12:00:32;;;;;;;6.72;5.25;;;;;;;;;;6240004;28;20661;-48
2022/06/26 12:03:32;;;;;;;8.48;5.68;;;;;;;;;;6240379;28;20072;-59
2022/06/26 12:06:35;;;;;;;6.65;5.47;;;;;;;;;;6240759;28;20079;-47
2022/06/26 12:09:37;;;;;;;7.78;5.55;;;;;;;;;;6246682;28;20122;-51
2022/06/26 12:12:49;;;;;;;8.93;5.70;;;;;;;;;;6247569;28;20087;-58
2022/06/26 12:15:50;;;;;;;6.88;5.43;;;;;;;;;;6247708;28;20053;-48
2022/06/26 12:18:50;;;;;;;7.05;5.65;;;;;;;;;;6247081;28;20060;-49
2022/06/26 12:21:53;;;;;;;6.10;5.32;;;;;;;;;;6246887;28;20393;-49
2022/06/26 12:24:55;;;;;;;7.90;6.00;;;;;;;;;;6243690;28;20045;-47
2022/06/26 12:27:57;;;;;;;7.53;5.50;;;;;;;;;;6240283;28;20096;-57
2022/06/26 12:31:00;;;;;;;8.50;5.50;;;;;;;;;;6244488;28;20044;-56
2022/06/26 12:34:02;;;;;;;9.05;5.97;;;;;;;;;;6249501;28;20080;-49
2022/06/26 12:37:03;;;;;;;8.02;5.57;;;;;;;;;;6241913;28;20029;-53
2022/06/26 12:40:04;;;;;;;;;;;;;;;;;;6242664;28;20076;-52
2022/06/26 12:43:05;;;;;;;7.45;5.85;;;;;;;;;;6244873;28;19928;-53
2022/06/26 12:46:06;;;;;;;9.25;5.65;;;;;;;;;;6243107;28;20127;-47
2022/06/26 12:49:06;;;;;;;;;;;;;;;;;;6246893;28;20495;-53
2022/06/26 12:52:07;;;;;;;7.70;5.40;;;;;;;;;;6244252;28;19958;-46
2022/06/26 12:55:09;;;;;;;;;;;;;;;;;;6242798;28;20055;-50
2022/06/26 12:58:10;;;;;;;7.88;5.35;;;;;;;;;;6244702;28;19975;-53
2022/06/26 13:01:10;;;;;;;;;;;;;;;;;;6245506;28;20059;-50
2022/06/26 13:04:11;;;;;;;9.07;5.70;;;;;;;;;;6244067;28;19932;-51
2022/06/26 13:07:11;;;;;;;;;;;;;;;;;;6240134;28;20055;-54
2022/06/26 13:10:12;;;;;;;6.97;5.77;;;;;;;;;;6243147;28;19932;-49
2022/06/26 13:13:13;;;;;;;;;;;;;;;;;;6244427;28;20723;-51
2022/06/26 13:16:14;;;;;;;6.80;5.27;;;;;;;;;;6241588;28;19978;-49
2022/06/26 13:19:15;;;;;;;;;;;;;;;;;;6245555;28;20060;-51
2022/06/26 13:22:15;;;;;;;10.40;5.50;;;;;;;;;;6243679;28;19960;-52
2022/06/26 13:25:16;;;;;;;;;;;;;;;;;;6241012;28;21005;-48
2022/06/26 13:28:16;;;;;;;7.57;5.03;;;;;;;;;;6243949;28;19929;-57
2022/06/26 13:31:17;;;;;;;;;;;;;;;;;;6244583;28;20061;-54
2022/06/26 13:34:18;;;;;;;9.00;5.30;;;;;;;;;;6242281;28;20006;-55
2022/06/26 13:37:19;;;;;;;;;;;;;;;;;;6242775;28;20196;-53
2022/06/26 13:40:19;;;;;;;7.50;5.17;;;;;;;;;;6244573;28;20478;-46
2022/06/26 13:43:20;;;;;;;;;;;;;;;;;;6243714;28;20057;-48
2022/06/26 13:46:21;;;;;;;7.33;5.37;;;;;;;;;;6243614;28;19994;-47
2022/06/26 13:49:21;;;;;;;;;;;;;;;;;;6245565;28;20058;-50
2022/06/26 13:52:22;;;;;;;8.33;5.30;;;;;;;;;;6240231;28;19929;-55
2022/06/26 13:55:22;;;;;;;;;;;;;;;;;;6240906;28;20140;-53
2022/06/26 13:58:23;;;;;;;7.00;5.10;;;;;;;;;;6244571;28;19959;-53
2022/06/26 14:01:24;;;;;;;;;;;;;;;;;;6241591;28;20522;-48
2022/06/26 14:04:24;;;;;;;12.50;5.30;;;;;;;;;;6243857;28;20024;-47
2022/06/26 14:07:25;;;;;;;;;;;;;;;;;;6242676;28;20717;-55
2022/06/26 14:10:25;;;;;;;6.87;4.87;;;;;;;;;;6241242;28;20422;-52
2022/06/26 14:13:26;;;;;;;;;;;;;;;;;;6244129;28;20144;-47
2022/06/26 14:16:27;;;;;;;7.93;5.90;;;;;;;;;;6241367;28;20355;-51
2022/06/26 14:19:27;;;;;;;;;;;;;;;;;;6247852;28;20052;-48
2022/06/26 14:25:56;;;;;;;11.57;5.18;;;;;;;;;;6241270;28;20053;-55
2022/06/26 14:28:57;;;;;;;7.57;5.30;;;;;;;;;;6244498;28;20045;-48
2022/06/26 14:31:58;;;;;;;11.13;7.30;;;;;;;;;;6244412;28;20480;-54
2022/06/26 14:34:58;;;;;;;9.98;5.18;;;;;;;;;;6241643;28;20052;-54
2022/06/26 14:37:59;;;;;;;7.93;4.93;;;;;;;;;;6243246;28;20139;-51
2022/06/26 14:41:01;;;;;;;;;;;;;;;;;;6243683;28;20467;-48
2022/06/26 14:44:02;;;;;;;10.13;4.93;;;;;;;;;;6240915;28;19925;-50
2022/06/26 14:47:03;;;;;;;7.78;4.78;;;;;;;;;;6239660;28;20056;-51
2022/06/26 14:50:04;;;;;;;5.82;5.10;;;;;;;;;;6244100;28;20056;-49
2022/06/26 14:53:04;;;;;;;7.40;5.07;;;;;;;;;;6241384;28;20053;-54
2022/06/26 14:56:06;;;;;;;12.65;5.13;;;;;;;;;;6238344;28;20693;-49
2022/06/26 14:59:06;;;;;;;6.57;4.72;;;;;;;;;;6244253;28;20076;-49
2022/06/26 15:02:08;;;;;;;9.63;4.63;;;;;;;;;;6244057;28;20442;-51
2022/06/26 15:05:09;;;;;;;7.47;4.97;;;;;;;;;;6243562;28;20259;-49
2022/06/26 15:08:10;;;;;;;6.40;4.80;;;;;;;;;;6246643;28;20049;-48
2022/06/26 15:11:10;;;;;;;6.07;4.55;;;;;;;;;;6244832;28;20057;-49
2022/06/26 15:14:11;;;;;;;6.65;4.60;;;;;;;;;;6244488;28;20122;-51
2022/06/26 15:17:11;;;;;;;6.40;4.70;;;;;;;;;;6240906;28;20057;-52
2022/06/26 15:20:12;;;;;;;;;;;;;;;;;;6247323;28;20519;-52
2022/06/26 15:23:13;;;;;;;7.20;4.77;;;;;;;;;;6246229;28;20484;-50
2022/06/26 15:26:13;;;;;;;8.55;4.70;;;;;;;;;;6244205;28;21602;-50
2022/06/26 15:29:14;;;;;;;7.38;4.85;;;;;;;;;;6251167;28;20415;-52
2022/06/26 15:32:14;;;;;;;5.53;4.68;;;;;;;;;;6240435;28;20057;-54
2022/06/26 15:35:15;;;;;;;8.10;4.90;;;;;;;;;;6241900;28;20044;-52
2022/06/26 15:38:15;;;;;;;5.32;4.55;;;;;;;;;;6247772;28;20111;-48
2022/06/26 15:41:16;;;;;;;7.25;4.22;;;;;;;;;;6222678;28;20053;-59
2022/06/26 15:44:17;;;;;;;6.55;4.65;;;;;;;;;;6239467;28;20566;-48
2022/06/26 15:47:18;;;;;;;7.57;4.70;;;;;;;;;;6244206;28;20123;-48
2022/06/26 15:50:18;;;;;;;7.63;4.63;;;;;;;;;;6241079;28;20068;-55
2022/06/26 15:53:19;;;;;;;8.32;4.47;;;;;;;;;;6246214;28;20076;-50
2022/06/26 15:56:20;;;;;;;9.30;4.68;;;;;;;;;;6241856;28;20076;-50
2022/06/26 15:59:21;;;;;;;8.25;4.65;;;;;;;;;;6244295;28;20079;-54
2022/06/26 16:02:21;;;;;;;6.07;4.30;;;;;;;;;;6241627;28;20049;-50
2022/06/26 16:05:22;;;;;;;7.00;4.32;;;;;;;;;;6242491;28;20056;-48
2022/06/26 16:08:22;;;;;;;6.88;4.30;;;;;;;;;;6242777;28;20055;-48
2022/06/26 16:11:23;;;;;;;6.80;4.20;;;;;;;;;;6245706;28;20175;-54
2022/06/26 16:14:24;;;;;;;5.70;4.18;;;;;;;;;;6244119;28;20126;-52
2022/06/26 16:17:24;;;;;;;7.80;4.50;;;;;;;;;;6242786;28;20471;-49
2022/06/26 16:20:25;;;;;;;6.82;4.78;;;;;;;;;;6244909;28;20052;-50
2022/06/26 16:26:45;;;;;;;7.00;4.50;;;;;;;;;;6243023;28;20589;-60
2022/06/26 16:29:46;;;;;;;7.53;4.88;;;;;;;;;;6241685;28;20057;-53
2022/06/26 16:32:46;;;;;;;7.45;4.75;;;;;;;;;;6245581;28;21528;-50
2022/06/26 16:35:47;;;;;;;7.55;4.70;;;;;;;;;;6245669;28;20099;-49
2022/06/26 16:38:48;;;;;;;7.47;4.82;;;;;;;;;;6247563;28;20499;-51
2022/06/26 16:41:49;;;;;;;8.60;4.63;;;;;;;;;;6247683;28;20443;-54
2022/06/26 16:44:50;;;;;;;7.93;4.60;;;;;;;;;;6241997;28;20049;-48
2022/06/26 16:47:50;;;;;;;7.25;4.68;;;;;;;;;;6245131;28;20090;-49
2022/06/26 16:50:52;;;;;;;;;;;;;;;;;;6248568;28;20499;-49
2022/06/26 16:53:53;;;;;;;8.70;4.82;;;;;;;;;;6245652;28;20008;-50
2022/06/26 16:56:54;;;;;;;7.15;4.53;;;;;;;;;;6245623;28;20059;-50
2022/06/26 16:59:55;;;;;;;8.65;4.50;;;;;;;;;;6247511;28;20045;-50
2022/06/26 17:02:55;;;;;;;8.55;4.30;;;;;;;;;;6244762;28;20047;-52
2022/06/26 17:05:56;;;;;;;;;;;;;;;;;;6243376;28;20040;-50
2022/06/26 17:08:56;;;;;;;7.93;4.73;;;;;;;;;;6245799;28;19925;-47
2022/06/26 17:11:57;;;;;;;10.20;4.45;;;;;;;;;;6244076;28;20139;-49
2022/06/26 17:14:57;;;;;;;;;;;;;;;;;;6242116;28;20601;-50
2022/06/26 17:17:58;;;;;;;5.57;4.27;;;;;;;;;;6245770;28;19921;-48
2022/06/26 17:20:59;;;;;;;;;;;;;;;;;;6246538;28;20048;-47
2022/06/26 17:23:59;;;;;;;6.63;4.30;;;;;;;;;;6244348;28;19943;-48
2022/06/26 17:27:00;;;;;;;8.90;4.70;;;;;;;;;;6243698;28;20132;-53
2022/06/26 17:30:01;;;;;;;;;;;;;;;;;;6243640;28;20566;-48
2022/06/26 17:33:01;;;;;;;10.17;5.00;;;;;;;;;;6243594;28;19967;-53
2022/06/26 17:36:02;;;;;;;;;;;;;;;;;;6242222;28;20049;-48
2022/06/26 17:39:04;;;;;;;8.90;4.90;;;;;;;;;;6244144;28;19921;-58
2022/06/26 17:42:05;;;;;;;9.75;5.05;;;;;;;;;;6242748;28;20073;-49
2022/06/26 17:45:06;;;;;;;8.95;5.40;;;;;;;;;;6242358;28;20544;-59
2022/06/26 17:48:07;;;;;;;7.75;4.63;;;;;;;;;;6243846;28;20069;-51
2022/06/26 17:51:10;;;;;;;9.68;5.38;;;;;;;;;;6243835;28;20072;-50
2022/06/26 17:54:10;;;;;;;9.02;5.70;;;;;;;;;;6237426;28;20056;-58
2022/06/26 17:57:13;;;;;;;11.93;6.63;;;;;;;;;;6238619;28;20106;-57
2022/06/26 18:00:20;;;;;;;13.90;6.50;;;;;;;;;;6242207;28;20107;-55
2022/06/26 18:03:21;;;;;;;13.10;5.78;;;;;;;;;;6245040;28;20183;-51
2022/06/26 18:06:22;;;;;;;11.68;5.72;;;;;;;;;;6243422;28;20053;-51
2022/06/26 18:09:23;;;;;;;;;;;;;;;;;;6243650;28;20098;-50
2022/06/26 18:12:24;;;;;;;11.37;5.80;;;;;;;;;;6244616;28;19932;-53
2022/06/26 18:15:24;;;;;;;;;;;;;;;;;;6240426;28;20302;-46
2022/06/26 18:18:25;;;;;;;8.30;5.30;;;;;;;;;;6243325;28;20011;-50
2022/06/26 18:21:25;;;;;;;;;;;;;;;;;;6242335;28;20049;-48
2022/06/26 18:24:26;;;;;;;9.90;5.57;;;;;;;;;;6240926;28;19935;-53